Time;durP1;ratioP1;P1;durP2;ratioP2;P2;SDS_P1;SDS_P2;PMS_P1;PMS_P2;Temp;Humidity;BMP_temperature;BMP_pressure;BME280_temperature;BME280_humidity;BME280_pressure;Samples;Min_cycle;Max_cycle;Signal;HPM_P1;HPM_P2
2024/01/18 00:00:50;;;;;;;13.88;4.40;;;18.90;46.30;;;;;;5150816;27;46683;-67
2024/01/18 00:03:17;;;;;;;9.82;4.10;;;18.90;46.30;;;;;;5151077;27;45186;-68
2024/01/18 00:05:44;;;;;;;13.38;4.60;;;18.90;46.30;;;;;;5151166;27;45322;-67
2024/01/18 00:08:12;;;;;;;8.68;3.88;;;18.90;46.40;;;;;;5151103;27;45307;-67
2024/01/18 00:10:39;;;;;;;9.05;3.97;;;18.90;46.80;;;;;;5150703;27;45542;-68
2024/01/18 00:13:06;;;;;;;8.38;3.92;;;18.90;46.80;;;;;;5150651;27;45295;-67
2024/01/18 00:15:33;;;;;;;11.93;4.18;;;18.90;46.90;;;;;;5150886;27;45328;-67
2024/01/18 00:18:00;;;;;;;10.70;3.88;;;18.90;47.00;;;;;;5151105;27;45299;-67
2024/01/18 00:20:27;;;;;;;13.57;4.47;;;18.90;46.90;;;;;;5150812;27;46156;-67
2024/01/18 00:22:54;;;;;;;12.40;4.57;;;18.80;46.90;;;;;;5150658;27;45291;-67
2024/01/18 00:25:22;;;;;;;12.90;4.03;;;18.80;46.90;;;;;;5150824;27;45299;-68
2024/01/18 00:27:49;;;;;;;11.35;3.95;;;18.80;46.90;;;;;;5150914;27;45377;-67
2024/01/18 00:30:18;;;;;;;8.23;3.75;;;18.80;46.90;;;;;;5150075;27;46442;-67
2024/01/18 00:32:45;;;;;;;9.07;3.45;;;18.80;46.90;;;;;;5150371;27;45314;-67
2024/01/18 00:35:12;;;;;;;8.02;3.63;;;18.80;47.50;;;;;;5150560;27;45403;-67
2024/01/18 00:37:39;;;;;;;8.05;3.10;;;18.70;46.80;;;;;;5150810;27;45372;-67
2024/01/18 00:40:07;;;;;;;12.50;3.90;;;18.70;46.90;;;;;;5150257;27;47392;-67
2024/01/18 00:42:36;;;;;;;8.90;3.60;;;18.70;46.90;;;;;;5150144;27;45281;-67
2024/01/18 00:45:02;;;;;;;12.02;3.95;;;18.70;46.80;;;;;;5149272;27;45308;-67
2024/01/18 00:47:30;;;;;;;7.45;3.55;;;18.70;46.80;;;;;;5150613;27;45350;-67
2024/01/18 00:49:57;;;;;;;7.90;3.30;;;18.60;46.80;;;;;;5149937;27;45456;-67
2024/01/18 00:52:24;;;;;;;6.80;3.28;;;18.60;46.80;;;;;;5150011;27;45231;-67
2024/01/18 00:54:51;;;;;;;5.00;2.97;;;18.50;46.70;;;;;;5150111;27;45392;-68
2024/01/18 00:57:18;;;;;;;9.20;3.22;;;18.60;46.90;;;;;;5150364;27;45277;-67
2024/01/18 00:59:46;;;;;;;6.22;2.65;;;18.60;46.90;;;;;;5149965;27;45312;-67
2024/01/18 01:02:13;;;;;;;4.85;2.83;;;18.50;46.80;;;;;;5150027;27;45378;-67
2024/01/18 01:04:40;;;;;;;4.47;2.53;;;18.50;46.80;;;;;;5149995;27;45291;-67
2024/01/18 01:07:06;;;;;;;6.85;3.17;;;18.50;46.90;;;;;;5150107;27;45389;-67
2024/01/18 01:09:33;;;;;;;5.75;2.25;;;18.50;46.70;;;;;;5149582;27;47326;-67
2024/01/18 01:12:00;;;;;;;7.15;2.38;;;18.50;46.80;;;;;;5149747;27;45256;-67
2024/01/18 01:14:27;;;;;;;5.90;2.33;;;18.40;46.90;;;;;;5149880;27;45314;-67
2024/01/18 01:16:55;;;;;;;5.68;2.25;;;18.40;46.80;;;;;;5149961;27;45368;-67
2024/01/18 01:19:22;;;;;;;6.70;2.97;;;18.40;46.80;;;;;;5149543;27;46656;-67
2024/01/18 01:21:49;;;;;;;6.40;2.60;;;18.40;47.40;;;;;;5149639;27;45129;-67
2024/01/18 01:24:16;;;;;;;6.95;2.80;;;18.40;46.80;;;;;;5149918;27;45291;-67
2024/01/18 01:26:42;;;;;;;4.28;1.77;;;18.40;46.70;;;;;;5149977;27;45179;-67
2024/01/18 01:29:11;;;;;;;3.53;1.73;;;18.40;46.80;;;;;;5149501;27;46400;-67
2024/01/18 01:31:38;;;;;;;6.18;2.50;;;18.40;46.90;;;;;;5149569;27;45177;-67
2024/01/18 01:34:06;;;;;;;5.00;2.15;;;18.30;46.70;;;;;;5149682;27;45554;-67
2024/01/18 01:36:33;;;;;;;4.22;2.30;;;18.30;46.70;;;;;;5149735;27;45391;-67
2024/01/18 01:38:59;;;;;;;5.07;2.00;;;18.30;46.70;;;;;;5149301;27;45723;-68
2024/01/18 01:41:26;;;;;;;3.75;2.03;;;18.30;46.70;;;;;;5149095;27;45292;-68
2024/01/18 01:43:57;;;;;;;3.08;1.88;;;18.30;46.80;;;;;;5149286;27;45279;-67
2024/01/18 01:46:24;;;;;;;3.83;1.88;;;18.20;46.70;;;;;;5149549;27;45396;-67
2024/01/18 01:48:50;;;;;;;3.30;1.92;;;18.20;46.70;;;;;;5149285;27;46383;-67
2024/01/18 01:51:19;;;;;;;4.07;2.08;;;18.20;46.80;;;;;;5148918;27;45381;-67
2024/01/18 01:53:45;;;;;;;3.17;1.77;;;18.20;46.70;;;;;;5149353;27;45400;-67
2024/01/18 01:56:12;;;;;;;4.03;1.85;;;18.20;46.70;;;;;;5149051;27;45456;-67
2024/01/18 01:58:39;;;;;;;5.43;1.98;;;18.20;46.70;;;;;;5148717;27;45541;-67
2024/01/18 02:01:06;;;;;;;4.93;2.10;;;18.20;46.70;;;;;;5149047;27;45276;-67
2024/01/18 02:03:33;;;;;;;3.88;1.77;;;18.20;46.70;;;;;;5149110;27;45164;-67
2024/01/18 02:06:00;;;;;;;3.58;1.60;;;18.10;46.60;;;;;;5149327;27;45194;-67
2024/01/18 02:08:28;;;;;;;2.90;1.55;;;18.10;46.70;;;;;;5148910;27;45463;-67
2024/01/18 02:10:55;;;;;;;4.30;1.88;;;18.10;46.70;;;;;;5148804;27;45355;-67
2024/01/18 02:13:23;;;;;;;3.70;1.88;;;18.10;46.60;;;;;;5148901;27;45347;-67
2024/01/18 02:15:50;;;;;;;3.70;1.63;;;18.10;46.80;;;;;;5149111;27;45320;-67
2024/01/18 02:18:16;;;;;;;3.47;1.67;;;18.10;46.70;;;;;;5148719;27;45367;-67
2024/01/18 02:20:43;;;;;;;2.38;1.45;;;18.00;46.60;;;;;;5148558;27;45380;-67
2024/01/18 02:23:10;;;;;;;5.63;2.10;;;18.00;46.70;;;;;;5148819;27;45411;-67
2024/01/18 02:25:37;;;;;;;3.70;1.63;;;18.00;46.70;;;;;;5148879;27;45409;-67
2024/01/18 02:28:04;;;;;;;2.60;1.35;;;18.00;46.70;;;;;;5148451;27;45481;-67
2024/01/18 02:30:31;;;;;;;2.90;1.65;;;18.00;46.70;;;;;;5148550;27;45301;-67
2024/01/18 02:32:58;;;;;;;2.63;1.52;;;18.00;46.60;;;;;;5148704;27;45465;-67
2024/01/18 02:35:25;;;;;;;3.25;1.40;;;18.00;46.70;;;;;;5148650;27;45376;-67
2024/01/18 02:37:52;;;;;;;2.38;1.45;;;18.00;47.30;;;;;;5145606;27;45216;-67
2024/01/18 02:40:19;;;;;;;1.40;1.20;;;18.00;46.60;;;;;;5148254;27;45226;-67
2024/01/18 02:42:47;;;;;;;3.28;1.55;;;18.00;46.70;;;;;;5148175;27;45251;-67
2024/01/18 02:45:14;;;;;;;2.80;1.40;;;17.90;46.50;;;;;;5148560;27;45411;-67
2024/01/18 02:47:41;;;;;;;4.20;1.55;;;17.90;46.60;;;;;;5145738;27;46168;-66
2024/01/18 02:50:08;;;;;;;5.28;1.45;;;17.90;46.50;;;;;;5148221;27;45353;-67
2024/01/18 02:52:37;;;;;;;1.75;1.13;;;17.90;46.50;;;;;;5148386;27;45249;-67
2024/01/18 02:55:06;;;;;;;3.85;1.60;;;17.90;46.50;;;;;;5148888;27;45363;-67
2024/01/18 02:57:32;;;;;;;2.15;1.25;;;17.90;46.50;;;;;;5147937;27;45327;-67
2024/01/18 03:00:01;;;;;;;2.38;1.20;;;17.90;46.60;;;;;;5147989;27;45269;-67
2024/01/18 03:02:28;;;;;;;2.80;1.52;;;17.90;46.50;;;;;;5145407;27;45332;-67
2024/01/18 03:04:54;;;;;;;2.10;1.20;;;17.90;46.50;;;;;;5148162;27;45393;-67
2024/01/18 03:07:21;;;;;;;2.17;1.35;;;17.90;46.50;;;;;;5147590;27;45351;-67
2024/01/18 03:09:48;;;;;;;1.58;1.20;;;17.90;46.50;;;;;;5147316;27;45323;-67
2024/01/18 03:12:15;;;;;;;2.22;1.30;;;17.80;46.40;;;;;;5147969;27;45262;-67
2024/01/18 03:14:42;;;;;;;1.58;0.80;;;17.80;46.40;;;;;;5148070;27;45389;-67
2024/01/18 03:17:10;;;;;;;1.27;0.95;;;17.80;46.40;;;;;;5147804;27;47393;-67
2024/01/18 03:19:37;;;;;;;2.83;1.25;;;17.80;46.40;;;;;;5147947;27;45304;-67
2024/01/18 03:22:04;;;;;;;2.33;1.00;;;17.80;46.50;;;;;;5147886;27;45341;-67
2024/01/18 03:24:31;;;;;;;2.45;1.40;;;17.80;46.50;;;;;;5148129;27;45263;-65
2024/01/18 03:26:58;;;;;;;4.03;1.25;;;17.80;47.00;;;;;;5147556;27;45373;-65
2024/01/18 03:29:25;;;;;;;1.95;0.98;;;17.80;46.40;;;;;;5144831;27;45581;-65
2024/01/18 03:31:51;;;;;;;1.85;1.08;;;17.70;46.30;;;;;;5144901;27;45490;-65
2024/01/18 03:34:20;;;;;;;1.70;1.20;;;17.70;46.50;;;;;;5148091;27;45367;-66
2024/01/18 03:36:46;;;;;;;2.67;1.17;;;17.70;46.40;;;;;;5147595;27;46545;-65
2024/01/18 03:39:13;;;;;;;1.33;0.90;;;17.70;46.40;;;;;;5147690;27;45309;-65
2024/01/18 03:41:40;;;;;;;1.83;0.93;;;17.70;46.50;;;;;;5147266;27;45389;-65
2024/01/18 03:44:07;;;;;;;1.90;1.10;;;17.70;46.40;;;;;;5147710;27;45439;-65
2024/01/18 03:46:34;;;;;;;2.25;0.70;;;17.70;46.40;;;;;;5147215;27;46685;-68
2024/01/18 03:49:01;;;;;;;2.28;1.00;;;17.70;46.40;;;;;;5147361;27;45193;-65
2024/01/18 03:51:29;;;;;;;1.70;0.90;;;17.70;46.40;;;;;;5147456;27;45345;-65
2024/01/18 03:53:56;;;;;;;1.27;0.88;;;17.70;46.50;;;;;;5147641;27;45372;-65
2024/01/18 03:56:23;;;;;;;2.17;0.93;;;17.60;46.30;;;;;;5147657;27;45318;-67
2024/01/18 03:58:50;;;;;;;1.52;0.60;;;17.60;46.40;;;;;;5147271;27;45133;-66
2024/01/18 04:01:16;;;;;;;1.63;0.90;;;17.60;46.30;;;;;;5147267;27;45315;-67
2024/01/18 04:03:44;;;;;;;2.45;1.17;;;17.60;46.40;;;;;;5147490;27;45247;-66
2024/01/18 04:06:13;;;;;;;3.17;1.23;;;17.60;46.40;;;;;;5147149;27;47963;-66
2024/01/18 04:08:42;;;;;;;1.75;1.02;;;17.60;46.50;;;;;;5147159;27;45205;-66
2024/01/18 04:11:08;;;;;;;3.72;1.13;;;17.60;46.40;;;;;;5147078;27;45189;-66
2024/01/18 04:13:35;;;;;;;0.82;0.82;;;17.70;46.40;;;;;;5147364;27;45397;-66
2024/01/18 04:16:02;;;;;;;1.95;1.08;;;17.70;46.20;;;;;;5146849;27;46388;-66
2024/01/18 04:18:29;;;;;;;1.52;0.60;;;17.80;46.00;;;;;;5147042;27;45395;-67
2024/01/18 04:20:56;;;;;;;1.58;1.10;;;17.80;45.80;;;;;;5148896;27;45320;-66
2024/01/18 04:23:23;;;;;;;2.60;0.88;;;17.90;45.60;;;;;;5150952;27;45396;-67
2024/01/18 04:25:51;;;;;;;1.40;0.63;;;18.00;45.50;;;;;;5150455;27;45362;-66
2024/01/18 04:28:19;;;;;;;1.88;0.90;;;18.10;45.30;;;;;;5150442;27;45420;-66
2024/01/18 04:30:46;;;;;;;1.48;1.00;;;18.20;45.10;;;;;;5150508;27;45269;-67
2024/01/18 04:33:12;;;;;;;1.02;0.82;;;18.30;45.00;;;;;;5150678;27;45406;-66
2024/01/18 04:35:54;;;;;;;2.17;0.90;;;18.40;44.80;;;;;;5150283;27;46579;-66
2024/01/18 04:38:21;;;;;;;1.73;1.00;;;18.40;44.50;;;;;;5150222;27;45178;-66
2024/01/18 04:40:48;;;;;;;2.65;0.90;;;18.60;44.40;;;;;;5150132;27;45284;-67
2024/01/18 04:43:16;;;;;;;2.05;0.77;;;18.60;44.20;;;;;;5150545;27;45347;-66
2024/01/18 04:45:43;;;;;;;2.63;0.75;;;18.70;44.00;;;;;;5150028;27;47543;-66
2024/01/18 04:48:10;;;;;;;2.83;0.98;;;18.80;43.90;;;;;;5150071;27;45299;-66
2024/01/18 04:50:37;;;;;;;1.40;0.70;;;18.90;43.80;;;;;;5150525;27;45561;-66
2024/01/18 04:53:04;;;;;;;3.88;0.90;;;18.90;43.70;;;;;;5150376;27;45293;-66
2024/01/18 04:55:32;;;;;;;1.63;0.70;;;19.00;43.50;;;;;;5149822;27;45428;-66
2024/01/18 04:57:59;;;;;;;1.48;0.70;;;19.10;43.50;;;;;;5149822;27;45342;-66
2024/01/18 05:00:27;;;;;;;0.70;0.70;;;19.10;43.40;;;;;;5149955;27;45316;-66
2024/01/18 05:02:54;;;;;;;1.30;0.52;;;19.10;43.30;;;;;;5150164;27;45356;-66
2024/01/18 05:05:21;;;;;;;0.50;0.50;;;19.20;43.20;;;;;;5149676;27;47935;-66
2024/01/18 05:07:49;;;;;;;1.52;0.73;;;19.20;43.10;;;;;;5149696;27;45431;-66
2024/01/18 05:10:16;;;;;;;0.55;0.55;;;19.30;43.20;;;;;;5149814;27;45297;-66
2024/01/18 05:12:44;;;;;;;0.95;0.70;;;19.30;43.10;;;;;;5150091;27;45370;-67
2024/01/18 05:15:11;;;;;;;2.42;0.95;;;19.30;43.00;;;;;;5149667;27;45650;-66
2024/01/18 05:17:41;;;;;;;0.70;0.70;;;19.30;43.00;;;;;;5149474;27;45380;-66
2024/01/18 05:20:08;;;;;;;0.85;0.55;;;19.40;42.90;;;;;;5149978;27;45267;-66
2024/01/18 05:22:36;;;;;;;1.13;0.68;;;19.40;42.90;;;;;;5149760;27;45450;-66
2024/01/18 05:25:02;;;;;;;1.15;0.52;;;19.40;42.80;;;;;;5149445;27;46333;-66
2024/01/18 05:27:30;;;;;;;1.05;0.95;;;19.50;42.80;;;;;;5149339;27;45358;-67
2024/01/18 05:29:57;;;;;;;0.90;0.60;;;19.50;43.40;;;;;;5149722;27;45262;-67
2024/01/18 05:32:24;;;;;;;0.50;0.50;;;19.50;42.70;;;;;;5149033;27;45327;-66
2024/01/18 05:34:52;;;;;;;2.28;0.57;;;19.60;42.70;;;;;;5149426;27;46402;-66
2024/01/18 05:37:22;;;;;;;2.35;0.60;;;19.60;42.70;;;;;;5149416;27;45687;-66
2024/01/18 05:39:49;;;;;;;0.50;0.50;;;19.60;43.20;;;;;;5149422;27;45188;-66
2024/01/18 05:42:15;;;;;;;2.50;0.70;;;19.60;42.60;;;;;;5149274;27;45475;-67
2024/01/18 05:44:42;;;;;;;1.10;0.50;;;19.60;42.60;;;;;;5149126;27;48013;-67
2024/01/18 05:47:09;;;;;;;2.13;0.50;;;19.70;42.60;;;;;;5148996;27;45235;-66
2024/01/18 05:49:36;;;;;;;0.68;0.60;;;19.70;42.50;;;;;;5146406;27;45252;-66
2024/01/18 05:52:05;;;;;;;0.82;0.65;;;19.70;42.50;;;;;;5149209;27;45439;-66
2024/01/18 05:54:33;;;;;;;1.30;0.40;;;19.70;42.50;;;;;;5148965;27;46397;-66
2024/01/18 05:57:00;;;;;;;0.80;0.50;;;19.70;42.40;;;;;;5148924;27;45495;-66
2024/01/18 05:59:27;;;;;;;1.50;0.50;;;19.70;42.40;;;;;;5149404;27;45239;-67
2024/01/18 06:01:54;;;;;;;0.82;0.68;;;19.80;42.40;;;;;;5149195;27;45282;-66
2024/01/18 06:04:21;;;;;;;0.68;0.68;;;19.80;42.40;;;;;;5148777;27;45629;-67
2024/01/18 06:06:49;;;;;;;0.30;0.30;;;19.80;42.40;;;;;;5148822;27;45363;-66
2024/01/18 06:09:18;;;;;;;0.32;0.32;;;19.80;42.40;;;;;;5149110;27;45219;-66
2024/01/18 06:11:45;;;;;;;1.23;0.30;;;19.80;42.30;;;;;;5148958;27;45252;-67
2024/01/18 06:14:11;;;;;;;0.57;0.40;;;19.90;42.40;;;;;;5148657;27;45401;-67
2024/01/18 06:16:39;;;;;;;0.35;0.35;;;19.90;42.90;;;;;;5148734;27;45371;-66
2024/01/18 06:19:06;;;;;;;0.32;0.32;;;19.90;42.20;;;;;;5148782;27;45190;-66
2024/01/18 06:21:32;;;;;;;0.93;0.50;;;19.90;42.20;;;;;;5149205;27;45329;-66
2024/01/18 06:23:59;;;;;;;0.38;0.35;;;19.90;42.20;;;;;;5148423;27;46374;-66
2024/01/18 06:26:27;;;;;;;0.40;0.30;;;19.90;42.20;;;;;;5148491;27;45340;-66
2024/01/18 06:28:54;;;;;;;0.65;0.50;;;19.90;42.20;;;;;;5148670;27;45310;-66
2024/01/18 06:31:26;;;;;;;0.30;0.30;;;19.90;42.10;;;;;;5148592;27;45186;-66
2024/01/18 06:33:53;;;;;;;1.00;0.52;;;19.90;42.10;;;;;;5148275;27;46383;-66
2024/01/18 06:36:22;;;;;;;2.92;0.40;;;19.90;42.10;;;;;;5148271;27;46024;-69
2024/01/18 06:38:49;;;;;;;0.45;0.40;;;19.90;42.10;;;;;;5148393;27;45373;-66
2024/01/18 06:41:16;;;;;;;0.77;0.40;;;20.00;42.20;;;;;;5148312;27;45383;-66
2024/01/18 06:43:44;;;;;;;0.50;0.40;;;20.00;42.20;;;;;;5147047;27;45497;-67
2024/01/18 06:46:16;;;;;;;0.70;0.50;;;20.00;42.10;;;;;;5148271;27;45182;-66
2024/01/18 06:48:43;;;;;;;0.32;0.20;;;20.00;42.10;;;;;;5148554;27;45543;-67
2024/01/18 06:51:10;;;;;;;1.45;0.50;;;20.00;42.00;;;;;;5148274;27;45386;-67
2024/01/18 06:53:37;;;;;;;0.50;0.38;;;20.10;42.10;;;;;;5147767;27;46451;-67
2024/01/18 06:56:04;;;;;;;0.35;0.30;;;20.10;42.10;;;;;;5149142;27;45242;-73
2024/01/18 06:58:31;;;;;;;0.25;0.25;;;20.10;42.10;;;;;;5148651;27;45387;-73
2024/01/18 07:00:59;;;;;;;0.45;0.45;;;20.00;42.00;;;;;;5149073;27;45488;-72
2024/01/18 07:03:30;;;;;;;1.48;0.52;;;20.10;42.00;;;;;;5148829;27;45448;-74
2024/01/18 07:05:57;;;;;;;0.20;0.20;;;20.10;42.00;;;;;;5148822;27;45405;-74
2024/01/18 07:08:24;;;;;;;0.30;0.30;;;20.10;42.00;;;;;;5149301;27;45478;-74
2024/01/18 07:10:51;;;;;;;0.20;0.20;;;20.10;42.00;;;;;;5148914;27;45545;-74
2024/01/18 07:13:17;;;;;;;0.10;0.10;;;20.10;42.00;;;;;;5148428;27;45233;-74
2024/01/18 07:15:44;;;;;;;0.17;0.17;;;20.10;42.00;;;;;;5148720;27;45275;-75
2024/01/18 07:18:13;;;;;;;1.08;0.50;;;20.10;41.90;;;;;;5148787;27;45365;-75
2024/01/18 07:20:40;;;;;;;0.30;0.30;;;20.20;42.00;;;;;;5148901;27;45410;-74
2024/01/18 07:23:07;;;;;;;0.20;0.20;;;20.20;42.00;;;;;;5148538;27;46358;-74
2024/01/18 07:25:34;;;;;;;1.55;0.30;;;20.10;41.90;;;;;;5148815;27;45395;-74
2024/01/18 07:28:01;;;;;;;0.63;0.35;;;20.20;41.90;;;;;;5148506;27;45397;-74
2024/01/18 07:30:28;;;;;;;0.93;0.40;;;20.20;41.90;;;;;;5149040;27;45360;-74
2024/01/18 07:32:55;;;;;;;0.17;0.17;;;20.20;41.90;;;;;;5148346;27;45364;-74
2024/01/18 07:35:23;;;;;;;0.57;0.20;;;20.20;42.00;;;;;;5148702;27;45233;-75
2024/01/18 07:37:50;;;;;;;0.25;0.22;;;20.20;42.00;;;;;;5149051;27;45307;-74
2024/01/18 07:40:17;;;;;;;0.52;0.38;;;20.20;41.90;;;;;;5148811;27;45439;-74
2024/01/18 07:42:44;;;;;;;0.30;0.30;;;20.20;41.80;;;;;;5137692;27;45472;-74
2024/01/18 07:45:14;;;;;;;0.20;0.20;;;20.20;41.80;;;;;;5128081;27;45294;-75
2024/01/18 07:47:41;;;;;;;0.43;0.32;;;20.30;41.90;;;;;;5127564;27;45145;-73
2024/01/18 07:50:09;;;;;;;0.43;0.20;;;20.30;41.90;;;;;;5127221;27;45442;-75
2024/01/18 07:52:38;;;;;;;0.43;0.30;;;20.30;41.90;;;;;;5127385;27;45448;-74
2024/01/18 07:55:07;;;;;;;0.20;0.20;;;20.30;41.80;;;;;;5129890;27;45278;-73
2024/01/18 07:57:34;;;;;;;0.35;0.20;;;20.30;41.80;;;;;;5130903;27;45361;-74
2024/01/18 08:00:01;;;;;;;1.33;0.40;;;20.30;41.80;;;;;;5131015;27;45547;-74
2024/01/18 08:02:28;;;;;;;0.75;0.35;;;20.30;41.70;;;;;;5131119;27;46993;-74
2024/01/18 08:04:54;;;;;;;0.57;0.35;;;20.30;41.80;;;;;;5130754;27;45372;-74
2024/01/18 08:07:21;;;;;;;0.30;0.30;;;20.30;41.80;;;;;;5131559;27;45376;-74
2024/01/18 08:09:49;;;;;;;0.32;0.32;;;20.30;41.80;;;;;;5131017;27;45418;-73
2024/01/18 08:12:16;;;;;;;1.55;0.35;;;20.30;41.80;;;;;;5130558;27;45358;-73
2024/01/18 08:14:43;;;;;;;0.60;0.60;;;20.40;41.80;;;;;;5130913;27;45338;-73
2024/01/18 08:17:10;;;;;;;0.75;0.68;;;20.40;41.70;;;;;;5130336;27;45314;-74
2024/01/18 08:19:39;;;;;;;0.55;0.55;;;20.40;41.80;;;;;;5130340;27;45367;-69
2024/01/18 08:22:06;;;;;;;0.50;0.50;;;20.40;41.70;;;;;;5129821;27;45280;-67
2024/01/18 08:24:32;;;;;;;0.60;0.60;;;20.40;41.70;;;;;;5129811;27;45150;-68
2024/01/18 08:27:00;;;;;;;0.52;0.52;;;20.40;41.70;;;;;;5130105;27;45299;-68
2024/01/18 08:29:27;;;;;;;0.70;0.70;;;20.40;41.70;;;;;;5130177;27;45267;-68
2024/01/18 08:31:54;;;;;;;0.60;0.60;;;20.40;41.70;;;;;;5129561;27;45279;-66
2024/01/18 08:34:21;;;;;;;2.75;0.85;;;20.40;41.70;;;;;;5129295;27;45322;-67
2024/01/18 08:36:48;;;;;;;1.58;0.80;;;20.40;41.70;;;;;;5129771;27;45210;-68
2024/01/18 08:39:15;;;;;;;1.30;0.80;;;20.40;41.70;;;;;;5130123;27;45406;-65
2024/01/18 08:41:42;;;;;;;0.88;0.88;;;20.40;41.70;;;;;;5129440;27;45406;-65
2024/01/18 08:44:10;;;;;;;1.00;1.00;;;20.40;41.70;;;;;;5129533;27;45489;-65
2024/01/18 08:46:39;;;;;;;1.08;0.98;;;20.40;41.70;;;;;;5129726;27;45316;-66
2024/01/18 08:49:06;;;;;;;1.25;1.00;;;20.50;41.80;;;;;;5129986;27;45405;-66
2024/01/18 08:51:33;;;;;;;2.92;0.93;;;20.40;41.60;;;;;;5129464;27;45570;-66
2024/01/18 08:54:00;;;;;;;0.95;0.95;;;20.50;41.70;;;;;;5129413;27;45327;-66
2024/01/18 08:56:27;;;;;;;2.00;1.10;;;20.50;41.70;;;;;;5129475;27;45410;-66
2024/01/18 08:58:54;;;;;;;1.10;1.00;;;20.50;41.70;;;;;;5130232;27;45512;-66
2024/01/18 09:01:22;;;;;;;1.23;1.13;;;20.50;41.70;;;;;;5129467;27;45201;-68
2024/01/18 09:03:49;;;;;;;1.30;1.02;;;20.50;41.70;;;;;;5129408;27;45388;-66
2024/01/18 09:06:16;;;;;;;1.10;0.95;;;20.50;41.70;;;;;;5128564;27;45277;-65
2024/01/18 09:08:44;;;;;;;1.27;1.17;;;20.50;41.60;;;;;;5129656;27;45430;-66
2024/01/18 09:11:11;;;;;;;1.00;1.00;;;20.50;41.60;;;;;;5129138;27;45299;-66
2024/01/18 09:13:37;;;;;;;1.10;1.00;;;20.50;42.20;;;;;;5128959;27;45366;-68
2024/01/18 09:16:07;;;;;;;0.85;0.85;;;20.50;41.70;;;;;;5129258;27;45338;-66
2024/01/18 09:18:35;;;;;;;1.15;1.05;;;20.50;41.70;;;;;;5129022;27;45309;-66
2024/01/18 09:21:02;;;;;;;1.05;1.05;;;20.50;41.60;;;;;;5129103;27;45253;-65
2024/01/18 09:23:28;;;;;;;2.22;1.10;;;20.50;41.70;;;;;;5129062;27;45378;-66
2024/01/18 09:25:55;;;;;;;1.73;0.95;;;20.50;41.70;;;;;;5129307;27;45361;-66
2024/01/18 09:28:22;;;;;;;0.80;0.77;;;20.50;41.70;;;;;;5129331;27;45352;-65
2024/01/18 09:30:49;;;;;;;1.00;1.00;;;20.50;41.70;;;;;;5129236;27;47454;-65
2024/01/18 09:33:16;;;;;;;1.00;1.00;;;20.50;41.70;;;;;;5129238;27;45318;-66
2024/01/18 09:35:45;;;;;;;2.38;1.42;;;20.50;41.80;;;;;;5129127;27;45377;-66
2024/01/18 09:38:12;;;;;;;1.98;1.10;;;20.50;41.70;;;;;;5129238;27;45401;-66
2024/01/18 09:40:40;;;;;;;2.95;0.90;;;20.60;41.80;;;;;;5128743;27;45337;-68
2024/01/18 09:43:09;;;;;;;1.55;0.98;;;20.60;41.80;;;;;;5128757;27;45265;-68
2024/01/18 09:45:38;;;;;;;1.38;1.10;;;20.60;42.00;;;;;;5128746;27;45473;-68
2024/01/18 09:48:07;;;;;;;1.20;1.10;;;20.50;41.80;;;;;;5129185;27;45206;-67
2024/01/18 09:50:33;;;;;;;1.25;1.15;;;20.60;41.80;;;;;;5128590;27;45307;-67
2024/01/18 09:53:02;;;;;;;1.23;1.13;;;20.60;41.80;;;;;;5128500;27;45462;-67
2024/01/18 09:55:29;;;;;;;1.05;1.02;;;20.60;41.90;;;;;;5128851;27;45292;-67
2024/01/18 09:57:56;;;;;;;1.25;1.15;;;20.60;41.80;;;;;;5128778;27;45474;-66
2024/01/18 10:00:26;;;;;;;1.05;0.98;;;20.60;41.80;;;;;;5128335;27;46579;-66
2024/01/18 10:02:53;;;;;;;1.20;1.10;;;20.60;41.80;;;;;;5128461;27;45387;-69
2024/01/18 10:05:20;;;;;;;1.20;1.10;;;20.60;41.90;;;;;;5128496;27;45203;-67
2024/01/18 10:07:47;;;;;;;1.50;1.00;;;20.60;41.90;;;;;;5129159;27;45254;-66
2024/01/18 10:10:18;;;;;;;1.40;1.30;;;20.60;41.90;;;;;;5128338;27;45299;-67
2024/01/18 10:12:47;;;;;;;1.52;1.15;;;20.60;41.80;;;;;;5128129;27;45318;-67
2024/01/18 10:15:20;;;;;;;0.90;0.90;;;20.60;41.90;;;;;;5128317;27;45511;-67
2024/01/18 10:17:47;;;;;;;1.13;1.02;;;20.60;41.90;;;;;;5128269;27;45254;-66
2024/01/18 10:20:14;;;;;;;1.00;0.90;;;20.60;41.70;;;;;;5128103;27;46571;-66
2024/01/18 10:22:43;;;;;;;0.73;0.73;;;20.70;41.60;;;;;;5127925;27;45327;-67
2024/01/18 10:25:12;;;;;;;1.35;1.10;;;20.70;41.60;;;;;;5128452;27;45291;-67
2024/01/18 10:27:46;;;;;;;1.50;1.20;;;20.70;41.40;;;;;;5128278;27;45575;-67
2024/01/18 10:30:15;;;;;;;1.58;1.20;;;20.70;41.30;;;;;;5127723;27;46726;-67
2024/01/18 10:32:45;;;;;;;0.93;0.93;;;20.80;41.10;;;;;;5128191;27;45428;-67
2024/01/18 10:35:19;;;;;;;1.25;1.13;;;20.80;41.00;;;;;;5128539;27;45317;-73
2024/01/18 10:37:46;;;;;;;1.02;0.93;;;20.80;40.80;;;;;;5129024;27;45252;-73
2024/01/18 10:40:17;;;;;;;0.98;0.98;;;20.80;40.70;;;;;;5128957;27;46376;-73
2024/01/18 10:42:46;;;;;;;1.15;1.10;;;20.70;40.60;;;;;;5128718;27;45442;-73
2024/01/18 10:45:13;;;;;;;0.80;0.80;;;20.70;40.60;;;;;;5128730;27;45241;-73
2024/01/18 10:47:39;;;;;;;1.27;1.27;;;20.70;40.50;;;;;;5128693;27;45456;-74
2024/01/18 10:50:08;;;;;;;1.20;1.00;;;20.70;40.50;;;;;;5128365;27;45486;-73
2024/01/18 10:52:35;;;;;;;0.93;0.93;;;20.60;40.60;;;;;;5128256;27;46084;-73
2024/01/18 10:55:02;;;;;;;1.20;1.10;;;20.60;40.60;;;;;;5128782;27;45174;-73
2024/01/18 10:57:29;;;;;;;0.93;0.93;;;20.60;40.60;;;;;;5127977;27;45482;-73
2024/01/18 10:59:59;;;;;;;0.82;0.82;;;20.50;40.50;;;;;;5127286;27;45494;-67
2024/01/18 11:02:26;;;;;;;1.02;1.00;;;20.50;40.50;;;;;;5127573;27;45312;-67
2024/01/18 11:04:53;;;;;;;0.90;0.90;;;20.40;40.40;;;;;;5127482;27;45229;-68
2024/01/18 11:07:20;;;;;;;0.85;0.80;;;20.40;40.50;;;;;;5127705;27;45292;-68
2024/01/18 11:09:47;;;;;;;0.75;0.75;;;20.30;40.40;;;;;;5127544;27;46365;-67
2024/01/18 11:12:14;;;;;;;0.73;0.70;;;20.30;40.50;;;;;;5127134;27;45284;-67
2024/01/18 11:14:41;;;;;;;0.85;0.85;;;20.30;40.50;;;;;;5127349;27;45121;-67
2024/01/18 11:17:13;;;;;;;1.25;0.80;;;20.20;40.40;;;;;;5127550;27;45456;-67
2024/01/18 11:19:40;;;;;;;0.80;0.80;;;20.20;40.40;;;;;;5124704;27;45258;-67
2024/01/18 11:22:10;;;;;;;0.80;0.80;;;20.20;40.40;;;;;;5127283;27;45124;-67
2024/01/18 11:24:37;;;;;;;0.98;0.88;;;20.20;40.40;;;;;;5127407;27;45363;-68
2024/01/18 11:27:17;;;;;;;0.93;0.93;;;20.10;40.40;;;;;;5127582;27;45398;-68
2024/01/18 11:29:45;;;;;;;0.80;0.80;;;20.10;40.50;;;;;;5128630;27;46666;-67
2024/01/18 11:32:15;;;;;;;0.70;0.70;;;20.00;40.40;;;;;;5130819;27;45368;-67
2024/01/18 11:34:42;;;;;;;1.20;0.82;;;20.00;40.50;;;;;;5130627;27;45242;-67
2024/01/18 11:37:12;;;;;;;1.35;0.80;;;19.90;40.50;;;;;;5130846;27;45184;-67
2024/01/18 11:39:55;;;;;;;1.77;0.88;;;19.90;40.60;;;;;;5130683;27;46361;-67
2024/01/18 11:42:23;;;;;;;2.47;0.70;;;19.90;40.60;;;;;;5130167;27;45391;-67
2024/01/18 11:44:51;;;;;;;0.85;0.77;;;19.80;40.60;;;;;;5130790;27;45325;-67
2024/01/18 11:47:20;;;;;;;0.95;0.77;;;19.80;40.50;;;;;;5131182;27;45193;-68
2024/01/18 11:49:47;;;;;;;0.95;0.70;;;19.90;40.50;;;;;;5130255;27;47044;-68
2024/01/18 11:52:14;;;;;;;0.75;0.75;;;20.00;40.30;;;;;;5130429;27;45304;-67
2024/01/18 11:54:41;;;;;;;3.05;0.70;;;20.10;40.10;;;;;;5130203;27;45185;-67
2024/01/18 11:57:12;;;;;;;1.15;0.95;;;20.20;39.80;;;;;;5130427;27;45439;-68
2024/01/18 11:59:41;;;;;;;0.70;0.70;;;20.30;39.50;;;;;;5131455;27;45415;-74
2024/01/18 12:02:09;;;;;;;0.60;0.60;;;20.40;39.30;;;;;;5131060;27;45135;-73
2024/01/18 12:04:37;;;;;;;0.73;0.73;;;20.50;39.10;;;;;;5131347;27;45315;-74
2024/01/18 12:07:04;;;;;;;0.77;0.70;;;20.50;38.90;;;;;;5128641;27;45210;-74
2024/01/18 12:09:32;;;;;;;0.90;0.90;;;20.60;38.80;;;;;;5131065;27;46374;-74
2024/01/18 12:11:59;;;;;;;0.85;0.85;;;20.60;38.60;;;;;;5131496;27;45252;-74
2024/01/18 12:14:26;;;;;;;2.22;1.00;;;20.60;38.50;;;;;;5132110;27;45468;-73
2024/01/18 12:16:53;;;;;;;0.77;0.77;;;20.60;39.30;;;;;;5131389;27;45459;-74
2024/01/18 12:19:30;;;;;;;0.70;0.70;;;20.60;38.90;;;;;;5130993;27;45340;-74
2024/01/18 12:21:59;;;;;;;1.25;0.90;;;20.60;39.10;;;;;;5131038;27;45231;-74
2024/01/18 12:24:26;;;;;;;1.20;0.90;;;20.60;39.00;;;;;;5131358;27;45359;-74
2024/01/18 12:26:52;;;;;;;0.70;0.70;;;20.60;39.30;;;;;;5131327;27;45377;-74
2024/01/18 12:29:20;;;;;;;1.88;0.80;;;20.60;39.10;;;;;;5130497;27;46404;-72
2024/01/18 12:31:47;;;;;;;0.80;0.80;;;20.60;39.50;;;;;;5130720;27;45158;-75
2024/01/18 12:34:19;;;;;;;0.85;0.85;;;20.50;39.30;;;;;;5130735;27;45242;-73
2024/01/18 12:36:46;;;;;;;3.08;0.98;;;20.50;39.40;;;;;;5131460;27;45630;-73
2024/01/18 12:39:16;;;;;;;0.90;0.90;;;20.50;39.50;;;;;;5131004;27;47773;-73
2024/01/18 12:41:43;;;;;;;0.80;0.80;;;20.40;39.40;;;;;;5129507;27;45292;-72
2024/01/18 12:44:11;;;;;;;0.85;0.75;;;20.40;39.40;;;;;;5130747;27;45318;-75
2024/01/18 12:46:38;;;;;;;0.95;0.90;;;20.30;39.60;;;;;;5130234;27;45267;-74